Time;durP1;ratioP1;P1;durP2;ratioP2;P2;SDS_P1;SDS_P2;PMS_P1;PMS_P2;Temp;Humidity;BMP_temperature;BMP_pressure;BME280_temperature;BME280_humidity;BME280_pressure;Samples;Min_cycle;Max_cycle;Signal;HPM_P1;HPM_P2
2023/11/06 00:00:42;;;;;;;6.53;1.70;;;;;;;13.71;74.97;99335.84;5012330;28;20034;-43
2023/11/06 00:03:07;;;;;;;7.35;2.00;;;;;;;13.81;74.78;99339.06;5014046;28;20501;-44
2023/11/06 00:05:36;;;;;;;10.00;2.17;;;;;;;14.05;74.01;99335.00;5011787;28;20061;-44
2023/11/06 00:08:02;;;;;;;8.77;2.15;;;;;;;13.86;74.29;99339.81;5009896;28;20045;-45
2023/11/06 00:10:28;;;;;;;11.13;2.53;;;;;;;13.82;75.14;99356.53;5008991;28;20201;-45
2023/11/06 00:12:53;;;;;;;8.18;2.25;;;;;;;14.13;74.06;99346.16;5009716;28;20033;-46
2023/11/06 00:15:20;;;;;;;7.20;2.28;;;;;;;14.04;74.57;99352.47;5009334;28;20426;-47
2023/11/06 00:17:46;;;;;;;10.88;2.63;;;;;;;14.14;74.06;99347.88;5009662;28;20030;-45
2023/11/06 00:20:11;;;;;;;8.52;2.70;;;;;;;14.25;73.48;99350.22;5009795;28;20045;-45
2023/11/06 00:22:40;;;;;;;9.25;2.40;;;;;;;14.31;73.07;99363.16;5009128;28;20045;-45
2023/11/06 00:25:06;;;;;;;9.55;2.40;;;;;;;13.97;74.08;99358.75;5013692;28;20049;-45
2023/11/06 00:27:31;;;;;;;9.43;2.30;;;;;;;13.77;75.16;99367.13;5012613;28;20404;-48
2023/11/06 00:32:33;;;;;;;8.40;2.00;;;;;;;14.00;74.00;99387.50;5009776;28;20072;-49
2023/11/06 00:34:58;;;;;;;7.55;2.00;;;;;;;13.89;74.78;99391.28;5013515;28;20038;-46
2023/11/06 00:37:24;;;;;;;5.95;1.80;;;;;;;14.15;73.80;99386.25;5012551;28;20412;-46
2023/11/06 00:39:49;;;;;;;8.48;1.80;;;;;;;14.04;73.86;99376.06;5013081;28;20045;-47
2023/11/06 00:42:15;;;;;;;6.53;1.65;;;;;;;13.96;74.18;99370.16;5013415;28;20038;-46
2023/11/06 00:44:40;;;;;;;10.23;1.65;;;;;;;13.90;74.30;99387.78;5012899;28;20714;-44
2023/11/06 00:47:06;;;;;;;8.07;1.67;;;;;;;13.82;73.81;99387.97;5013231;28;20491;-48
2023/11/06 00:49:31;;;;;;;6.18;1.40;;;;;;;13.73;74.70;99388.16;5013402;28;20034;-45
2023/11/06 00:51:57;;;;;;;6.13;1.20;;;;;;;13.47;75.42;99401.84;5013665;28;20050;-45
2023/11/06 00:54:23;;;;;;;6.95;1.52;;;;;;;13.43;75.93;99399.31;5013241;28;20091;-44
2023/11/06 00:56:48;;;;;;;5.18;1.23;;;;;;;13.77;74.30;99401.16;5013487;28;20136;-48
2023/11/06 00:59:16;;;;;;;5.80;1.20;;;;;;;13.73;75.14;99406.47;5013437;28;20041;-49
2023/11/06 01:01:43;;;;;;;6.20;1.30;;;;;;;13.90;73.92;99400.88;5013458;28;20083;-44
2023/11/06 01:04:09;;;;;;;5.57;1.20;;;;;;;13.59;75.44;99398.97;5013314;28;20049;-46
2023/11/06 01:06:35;;;;;;;3.60;1.05;;;;;;;13.90;74.27;99399.13;5013618;28;20038;-45
2023/11/06 01:09:00;;;;;;;8.50;1.55;;;;;;;13.85;74.80;99408.81;5014354;28;20038;-48
2023/11/06 01:11:25;;;;;;;5.63;1.30;;;;;;;13.89;74.41;99414.88;5014633;28;20490;-44
2023/11/06 01:13:51;;;;;;;3.97;1.40;;;;;;;13.80;74.31;99416.78;5013342;28;20484;-47
2023/11/06 01:16:19;;;;;;;6.60;1.63;;;;;;;13.97;73.71;99421.63;5012597;28;20040;-52
2023/11/06 01:18:45;;;;;;;9.18;1.70;;;;;;;13.78;74.75;99423.81;5012197;28;20088;-51
2023/11/06 01:21:11;;;;;;;8.05;1.73;;;;;;;13.82;74.27;99424.63;5012811;28;20033;-46
2023/11/06 01:23:36;;;;;;;7.85;1.73;;;;;;;13.92;73.42;99431.38;5011974;28;20092;-45
2023/11/06 01:26:02;;;;;;;7.25;1.70;;;;;;;13.82;74.00;99435.09;5012760;28;20029;-46
2023/11/06 01:28:27;;;;;;;7.00;1.88;;;;;;;13.54;75.08;99434.84;5011974;28;20046;-52
2023/11/06 01:30:52;;;;;;;6.55;1.77;;;;;;;13.64;74.59;99430.28;5012263;28;20116;-47
2023/11/06 01:33:18;;;;;;;6.50;1.85;;;;;;;13.54;75.37;99447.94;5012099;28;20137;-45
2023/11/06 01:35:44;;;;;;;10.85;2.17;;;;;;;13.60;74.86;99447.78;5013643;28;20038;-47
2023/11/06 01:38:09;;;;;;;7.78;2.08;;;;;;;13.57;74.71;99457.50;5013071;28;20492;-45
2023/11/06 01:40:35;;;;;;;8.93;1.98;;;;;;;13.56;75.52;99459.25;5012822;28;20104;-43
2023/11/06 01:43:06;;;;;;;9.50;1.80;;;;;;;13.48;76.02;99461.16;5012173;28;20033;-48
2023/11/06 01:45:32;;;;;;;7.05;1.98;;;;;;;13.24;76.42;99456.41;5011163;28;20049;-47
2023/11/06 01:48:00;;;;;;;9.15;2.10;;;;;;;13.56;75.07;99469.72;5011741;28;20092;-51
2023/11/06 01:50:27;;;;;;;5.63;1.80;;;;;;;13.63;74.48;99468.69;5010988;28;20038;-45
2023/11/06 01:52:52;;;;;;;5.03;1.80;;;;;;;13.74;74.01;99469.31;5011689;28;20479;-48
2023/11/06 01:55:18;;;;;;;9.55;1.83;;;;;;;13.71;74.14;99469.41;5011277;28;20113;-48
2023/11/06 01:57:43;;;;;;;8.68;2.03;;;;;;;13.36;75.96;99474.50;5011917;28;20030;-48
2023/11/06 02:00:10;;;;;;;8.82;1.85;;;;;;;13.80;75.08;99471.81;5012194;28;20057;-48
2023/11/06 02:02:35;;;;;;;8.15;1.83;;;;;;;13.47;75.96;99475.16;5013566;28;20489;-46
2023/11/06 02:05:01;;;;;;;11.20;1.90;;;;;;;13.57;76.39;99475.81;4996833;28;20040;-47
2023/11/06 02:07:27;;;;;;;6.25;2.13;;;;;;;13.61;76.69;99480.09;5011440;28;20038;-46
2023/11/06 02:09:52;;;;;;;8.15;2.40;;;;;;;13.92;75.30;99480.28;5014279;28;20034;-45
2023/11/06 02:12:18;;;;;;;11.52;2.20;;;;;;;14.13;74.20;99485.06;5011218;28;20048;-46
2023/11/06 02:14:49;;;;;;;8.65;2.72;;;;;;;13.73;75.57;99480.69;5011806;28;20061;-45
2023/11/06 02:17:14;;;;;;;12.80;3.40;;;;;;;13.56;75.92;99485.41;5012533;28;20408;-46
2023/11/06 02:19:39;;;;;;;5.40;2.35;;;;;;;13.68;75.54;99484.31;5011410;28;20113;-47
2023/11/06 02:22:09;;;;;;;10.98;2.85;;;;;;;13.57;76.38;99491.53;5011748;28;20685;-47
2023/11/06 02:24:36;;;;;;;6.85;2.33;;;;;;;13.74;75.25;99487.66;5010561;28;20030;-46
2023/11/06 02:27:02;;;;;;;10.73;2.40;;;;;;;13.86;74.83;99496.13;5010903;28;20033;-46
2023/11/06 02:29:27;;;;;;;8.10;2.30;;;;;;;13.90;74.59;99501.31;5010498;28;20048;-44
2023/11/06 02:31:53;;;;;;;6.65;2.00;;;;;;;13.77;75.11;99497.22;5010888;28;20041;-45
2023/11/06 02:34:18;;;;;;;8.52;2.13;;;;;;;13.77;75.08;99502.47;5010650;28;20092;-50
2023/11/06 02:36:44;;;;;;;6.53;1.80;;;;;;;13.64;75.08;99499.22;5010598;28;20038;-46
2023/11/06 02:39:10;;;;;;;8.48;1.90;;;;;;;13.69;74.97;99505.22;4993331;28;20060;-48
2023/11/06 02:41:35;;;;;;;4.88;1.77;;;;;;;13.81;74.49;99504.09;5010572;28;20038;-50
2023/11/06 02:44:01;;;;;;;11.35;2.05;;;;;;;13.84;74.16;99514.53;5010938;28;20038;-48
2023/11/06 02:46:27;;;;;;;7.93;2.13;;;;;;;13.34;75.57;99511.19;5009718;28;20620;-44
2023/11/06 02:48:53;;;;;;;4.47;1.73;;;;;;;13.30;75.38;99516.50;5010982;28;20037;-50
2023/11/06 02:51:18;;;;;;;14.23;2.38;;;;;;;13.27;75.25;99521.78;5010235;28;20040;-46
2023/11/06 02:53:43;;;;;;;9.13;2.00;;;;;;;13.29;75.13;99533.13;5010481;28;20032;-45
2023/11/06 02:56:08;;;;;;;8.40;1.95;;;;;;;13.20;75.43;99531.50;5010690;28;20037;-45
2023/11/06 02:58:34;;;;;;;10.77;1.85;;;;;;;13.07;75.41;99540.44;5010131;28;20059;-46
2023/11/06 03:00:59;;;;;;;8.32;2.00;;;;;;;13.07;76.12;99548.28;5010783;28;20125;-46
2023/11/06 03:03:25;;;;;;;6.43;1.90;;;;;;;13.16;75.84;99542.94;5010039;28;20061;-45
2023/11/06 03:05:50;;;;;;;7.55;1.65;;;;;;;13.20;75.34;99548.97;5010677;28;20117;-48
2023/11/06 03:08:16;;;;;;;9.77;1.90;;;;;;;13.12;75.17;99550.81;5010258;28;20093;-47
2023/11/06 03:10:41;;;;;;;8.98;1.90;;;;;;;13.15;75.63;99558.66;5009684;28;20096;-44
2023/11/06 03:13:07;;;;;;;9.60;1.60;;;;;;;13.25;74.93;99549.75;5010537;28;20049;-45
2023/11/06 03:15:33;;;;;;;14.23;1.90;;;;;;;13.00;76.11;99558.00;5011761;28;20052;-44
2023/11/06 03:17:58;;;;;;;12.50;1.85;;;;;;;13.14;75.06;99551.69;5012088;28;20029;-46
2023/11/06 03:20:24;;;;;;;11.38;1.70;;;;;;;13.05;76.12;99554.47;5010699;28;20558;-46
2023/11/06 03:22:49;;;;;;;11.20;1.85;;;;;;;12.95;76.20;99553.75;5010442;28;20042;-49
2023/11/06 03:25:14;;;;;;;4.60;1.77;;;;;;;12.95;76.62;99559.84;5010143;28;20030;-47
2023/11/06 03:27:40;;;;;;;10.15;1.85;;;;;;;12.94;76.42;99550.25;5009547;28;20038;-44
2023/11/06 03:30:05;;;;;;;7.10;1.85;;;;;;;12.90;76.10;99553.81;5010131;28;20066;-46
2023/11/06 03:32:31;;;;;;;6.00;1.90;;;;;;;12.95;76.33;99567.69;5009588;28;20042;-49
2023/11/06 03:34:57;;;;;;;9.15;2.10;;;;;;;13.16;75.66;99563.88;5009993;28;20060;-49
2023/11/06 03:37:23;;;;;;;7.65;1.77;;;;;;;13.18;75.17;99561.22;5009766;28;20042;-44
2023/11/06 03:39:49;;;;;;;9.30;1.98;;;;;;;12.74;77.14;99561.97;4992451;28;20038;-46
2023/11/06 03:42:14;;;;;;;8.10;1.98;;;;;;;12.83;76.92;99573.13;5009970;28;20034;-46
2023/11/06 03:44:40;;;;;;;6.05;1.95;;;;;;;13.01;76.09;99566.72;5009816;28;20053;-50
2023/11/06 03:47:05;;;;;;;6.80;1.70;;;;;;;13.12;76.61;99574.38;5009736;28;20527;-45
2023/11/06 03:49:30;;;;;;;10.57;1.85;;;;;;;13.12;76.13;99571.75;5009549;28;20037;-45
2023/11/06 03:51:56;;;;;;;5.57;1.75;;;;;;;13.38;75.19;99567.81;5010217;28;20095;-47
2023/11/06 03:54:21;;;;;;;11.88;1.95;;;;;;;13.15;76.05;99574.38;5009401;28;20488;-46
2023/11/06 03:56:46;;;;;;;13.38;2.00;;;;;;;13.23;75.84;99572.47;5009633;28;20480;-46
2023/11/06 03:59:11;;;;;;;11.55;1.80;;;;;;;13.45;75.25;99580.78;5012572;28;20034;-44
2023/11/06 04:01:38;;;;;;;5.18;1.55;;;;;;;13.13;76.55;99569.16;5013195;28;20423;-44
2023/11/06 04:04:04;;;;;;;7.28;1.60;;;;;;;13.36;75.21;99574.81;5013419;28;20044;-52
2023/11/06 04:06:30;;;;;;;3.95;1.33;;;;;;;13.38;75.20;99580.91;5013008;28;20041;-44
2023/11/06 04:08:56;;;;;;;7.18;1.35;;;;;;;12.95;75.93;99572.91;5013900;28;20030;-46
2023/11/06 04:11:21;;;;;;;7.20;1.52;;;;;;;12.99;75.77;99573.75;5013022;28;20091;-47
2023/11/06 04:13:47;;;;;;;5.93;1.40;;;;;;;13.05;74.96;99581.50;5013399;28;20092;-44
2023/11/06 04:16:14;;;;;;;6.43;1.50;;;;;;;13.18;74.54;99585.63;5013464;28;20455;-46
2023/11/06 04:18:40;;;;;;;5.93;1.30;;;;;;;12.97;74.81;99589.47;5012820;28;20040;-47
2023/11/06 04:21:06;;;;;;;8.05;1.30;;;;;;;12.89;75.37;99586.09;5013304;28;20033;-49
2023/11/06 04:23:31;;;;;;;4.72;1.10;;;;;;;12.92;74.53;99593.91;5012727;28;20093;-45
2023/11/06 04:25:57;;;;;;;6.95;1.40;;;;;;;12.98;74.33;99601.66;5013532;28;20037;-46
2023/11/06 04:28:22;;;;;;;5.57;1.00;;;;;;;12.93;73.94;99599.97;5012958;28;20120;-49
2023/11/06 04:30:47;;;;;;;5.05;1.30;;;;;;;12.63;75.15;99592.63;5013271;28;20057;-48
2023/11/06 04:33:13;;;;;;;4.95;1.00;;;;;;;12.61;75.34;99590.06;5013763;28;20129;-47
2023/11/06 04:35:38;;;;;;;5.40;1.38;;;;;;;12.54;75.39;99597.13;5012553;28;20501;-48
2023/11/06 04:38:04;;;;;;;8.95;1.10;;;;;;;12.70;74.55;99595.13;5013349;28;20049;-50
2023/11/06 04:40:29;;;;;;;6.45;1.10;;;;;;;12.88;74.07;99594.81;4994932;28;20629;-46
2023/11/06 04:42:55;;;;;;;9.18;1.10;;;;;;;12.63;74.61;99606.56;5013243;28;20044;-49
2023/11/06 04:45:20;;;;;;;6.22;1.20;;;;;;;12.71;74.95;99604.69;5012794;28;20038;-46
2023/11/06 04:47:46;;;;;;;9.05;1.10;;;;;;;12.44;76.18;99612.97;4995320;28;20053;-46
2023/11/06 04:50:12;;;;;;;3.95;1.27;;;;;;;12.71;75.23;99619.53;5013157;28;20414;-45
2023/11/06 04:52:38;;;;;;;7.10;0.93;;;;;;;12.63;75.06;99624.84;5012498;28;20496;-46
2023/11/06 04:55:04;;;;;;;5.85;0.90;;;;;;;12.60;75.51;99622.31;5012982;28;20095;-45
2023/11/06 04:57:30;;;;;;;7.55;1.00;;;;;;;12.22;75.88;99620.22;5012763;28;20038;-45
2023/11/06 04:59:56;;;;;;;4.45;1.10;;;;;;;12.53;74.94;99618.91;5012913;28;20038;-45
2023/11/06 05:02:21;;;;;;;5.45;1.08;;;;;;;12.80;74.19;99624.63;5012504;28;20042;-45
2023/11/06 05:04:46;;;;;;;5.03;0.70;;;;;;;12.90;73.29;99615.75;5012824;28;20458;-48
2023/11/06 05:07:12;;;;;;;6.82;1.20;;;;;;;12.18;76.43;99623.78;5012650;28;20381;-48
2023/11/06 05:09:37;;;;;;;5.60;1.33;;;;;;;12.68;74.55;99617.84;5011779;28;20443;-48
2023/11/06 05:12:03;;;;;;;5.45;0.70;;;;;;;12.76;73.90;99633.38;5012548;28;20061;-46
2023/11/06 05:14:28;;;;;;;4.20;0.90;;;;;;;12.65;74.31;99632.69;5012216;28;20535;-45
2023/11/06 05:16:54;;;;;;;6.35;0.75;;;;;;;12.45;73.81;99631.22;5012475;28;20042;-47
2023/11/06 05:19:19;;;;;;;6.53;1.27;;;;;;;12.77;73.33;99642.97;5012485;28;20119;-47
2023/11/06 05:21:45;;;;;;;4.22;0.98;;;;;;;12.59;73.84;99649.34;5015247;28;20026;-51
2023/11/06 05:24:11;;;;;;;4.90;0.90;;;;;;;12.46;74.35;99639.94;5030592;28;20042;-52
2023/11/06 05:26:38;;;;;;;11.02;1.27;;;;;;;12.60;74.15;99651.94;5035218;28;20046;-50
2023/11/06 05:29:04;;;;;;;5.75;0.90;;;;;;;12.56;74.02;99652.00;5024300;28;20038;-45
2023/11/06 05:31:29;;;;;;;5.05;1.33;;;;;;;12.52;74.67;99651.16;5011748;28;20034;-46
2023/11/06 05:33:55;;;;;;;7.90;1.10;;;;;;;12.89;73.37;99654.09;5012754;28;20040;-46
2023/11/06 05:36:21;;;;;;;7.45;1.23;;;;;;;12.79;72.88;99649.03;5011863;28;20041;-45
2023/11/06 05:38:46;;;;;;;6.03;1.10;;;;;;;12.47;75.16;99660.81;5012374;28;20042;-47
2023/11/06 05:41:12;;;;;;;8.40;1.17;;;;;;;12.80;73.64;99654.25;5012308;28;20092;-45
2023/11/06 05:43:38;;;;;;;5.88;1.05;;;;;;;12.74;73.89;99656.09;5012149;28;20125;-46
2023/11/06 05:46:05;;;;;;;7.00;1.27;;;;;;;12.78;73.96;99657.78;5013090;28;20041;-46
2023/11/06 05:48:31;;;;;;;6.47;1.38;;;;;;;12.50;75.31;99655.53;5012431;28;20042;-47
2023/11/06 05:50:58;;;;;;;8.13;1.50;;;;;;;12.63;73.97;99661.47;5012133;28;20042;-48
2023/11/06 05:53:24;;;;;;;6.13;1.45;;;;;;;12.72;73.86;99665.72;5011310;28;20436;-50
2023/11/06 05:55:49;;;;;;;6.93;1.48;;;;;;;12.67;73.95;99672.75;5011775;28;20041;-50
2023/11/06 05:58:15;;;;;;;7.22;1.60;;;;;;;12.83;73.31;99674.25;5011665;28;20038;-47
2023/11/06 06:00:40;;;;;;;6.18;1.48;;;;;;;12.47;75.17;99675.66;4993596;28;20116;-47
2023/11/06 06:03:09;;;;;;;8.10;1.60;;;;;;;12.37;75.17;99671.44;5011605;28;20065;-51
2023/11/06 06:05:34;;;;;;;8.90;1.30;;;;;;;12.75;74.20;99660.41;5010927;28;20034;-45
2023/11/06 06:08:01;;;;;;;6.82;1.35;;;;;;;12.64;73.49;99673.66;5011453;28;20484;-47
2023/11/06 06:10:26;;;;;;;6.13;1.25;;;;;;;12.95;72.32;99679.31;5010789;28;20049;-48
2023/11/06 06:12:52;;;;;;;8.35;1.50;;;;;;;12.86;72.69;99688.19;5011294;28;20034;-46
2023/11/06 06:15:17;;;;;;;6.85;1.30;;;;;;;12.55;73.55;99689.50;5011396;28;20038;-49
2023/11/06 06:17:43;;;;;;;8.13;1.50;;;;;;;12.69;73.64;99684.91;5010774;28;20034;-46
2023/11/06 06:20:14;;;;;;;5.68;1.25;;;;;;;12.71;73.39;99690.13;5010663;28;20045;-46
2023/11/06 06:22:40;;;;;;;4.30;1.20;;;;;;;12.85;72.67;99701.28;4992961;28;20030;-50
2023/11/06 06:25:06;;;;;;;7.03;1.20;;;;;;;12.83;72.87;99690.81;5010971;28;20056;-49
2023/11/06 06:27:32;;;;;;;7.32;1.52;;;;;;;13.00;71.72;99699.28;5010368;28;20045;-46
2023/11/06 06:29:57;;;;;;;5.90;1.30;;;;;;;12.76;72.60;99706.63;5010999;28;20038;-46
2023/11/06 06:32:23;;;;;;;6.63;1.25;;;;;;;12.92;71.69;99705.53;5038180;23;20045;-78
2023/11/06 06:34:51;;;;;;;8.10;1.40;;;;;;;12.77;72.70;99704.00;5039193;28;20037;-79
2023/11/06 06:37:17;;;;;;;7.55;1.50;;;;;;;12.79;72.64;99710.06;5039488;28;20398;-81
2023/11/06 06:39:48;;;;;;;10.55;1.77;;;;;;;12.67;73.04;99709.38;5038256;28;20033;-79
2023/11/06 06:42:17;;;;;;;8.23;1.60;;;;;;;12.50;74.23;99715.66;5021052;28;20037;-79
2023/11/06 06:44:43;;;;;;;4.93;1.40;;;;;;;12.76;73.53;99715.31;5018245;28;20505;-80
2023/11/06 06:47:08;;;;;;;7.30;1.42;;;;;;;13.01;71.71;99718.47;5019144;28;20037;-79
2023/11/06 06:49:42;;;;;;;8.55;1.38;;;;;;;12.81;72.16;99710.03;5036094;28;20752;-79
2023/11/06 06:52:08;;;;;;;6.10;1.35;;;;;;;12.56;73.67;99723.44;5032249;28;20050;-79
2023/11/06 06:54:34;;;;;;;6.20;1.30;;;;;;;13.02;71.94;99726.28;5019883;28;20034;-79
2023/11/06 06:57:00;;;;;;;7.97;1.60;;;;;;;12.83;71.49;99724.81;5031149;28;20048;-79
2023/11/06 06:59:26;;;;;;;6.78;1.50;;;;;;;12.84;71.72;99728.31;5031059;28;20649;-79
2023/11/06 07:01:56;;;;;;;7.93;1.50;;;;;;;12.63;72.87;99736.44;5031464;28;20097;-80
2023/11/06 07:04:21;;;;;;;6.65;1.40;;;;;;;12.76;72.14;99736.25;5029814;28;20029;-80
2023/11/06 07:06:47;;;;;;;6.55;1.48;;;;;;;12.82;71.76;99743.16;5031422;28;20187;-80
2023/11/06 07:09:14;;;;;;;7.22;1.40;;;;;;;12.96;70.91;99746.44;5034054;28;20049;-79
2023/11/06 07:11:39;;;;;;;7.20;1.15;;;;;;;12.96;71.05;99746.44;5031071;28;20091;-80
2023/11/06 07:14:07;;;;;;;6.20;1.40;;;;;;;12.95;70.46;99758.66;5031038;28;20033;-81
2023/11/06 07:16:33;;;;;;;6.45;1.50;;;;;;;13.00;70.58;99763.81;5012798;28;20045;-80
2023/11/06 07:18:58;;;;;;;5.05;1.48;;;;;;;13.15;70.10;99760.16;5040720;28;20043;-79
2023/11/06 07:21:23;;;;;;;5.25;1.10;;;;;;;13.23;70.42;99756.56;5059475;28;20132;-78
2023/11/06 07:23:49;;;;;;;6.32;1.13;;;;;;;13.48;69.48;99758.78;5053625;28;20489;-78
2023/11/06 07:26:15;;;;;;;6.70;1.20;;;;;;;13.22;68.39;99760.06;5050890;28;20041;-80
2023/11/06 07:28:41;;;;;;;2.25;0.85;;;;;;;13.25;69.02;99760.00;5050623;28;20512;-78
2023/11/06 07:31:06;;;;;;;5.65;1.10;;;;;;;13.28;69.43;99759.97;5051803;28;20040;-78
2023/11/06 07:33:31;;;;;;;3.90;0.90;;;;;;;13.36;68.09;99771.16;5051732;28;20037;-78
2023/11/06 07:35:56;;;;;;;5.47;1.10;;;;;;;13.64;67.76;99766.34;5053286;28;20033;-79
2023/11/06 07:38:22;;;;;;;3.67;0.95;;;;;;;13.44;67.67;99768.44;5053735;28;20061;-79
2023/11/06 07:40:56;;;;;;;5.10;1.08;;;;;;;13.71;66.94;99767.13;5053736;28;20136;-78
2023/11/06 07:43:22;;;;;;;6.85;1.17;;;;;;;13.62;66.93;99778.59;5060645;28;20075;-79
2023/11/06 07:45:47;;;;;;;3.42;0.85;;;;;;;13.85;65.96;99766.84;5058941;28;20064;-79
2023/11/06 07:48:16;;;;;;;5.97;1.00;;;;;;;13.73;66.29;99770.56;5055262;28;20068;-79
2023/11/06 07:50:45;;;;;;;5.32;0.95;;;;;;;13.80;66.14;99793.16;5050305;28;20044;-79
2023/11/06 07:53:13;;;;;;;3.35;0.80;;;;;;;13.80;65.31;99780.91;5050226;28;20036;-80
2023/11/06 07:55:45;;;;;;;5.38;1.08;;;;;;;13.79;64.82;99788.78;5050548;28;20064;-80
2023/11/06 07:58:10;;;;;;;3.83;0.82;;;;;;;13.60;66.33;99787.41;5050842;28;20045;-80
2023/11/06 08:00:40;;;;;;;4.43;0.98;;;;;;;14.15;65.09;99785.53;5047065;28;20098;-79
2023/11/06 08:03:06;;;;;;;5.45;1.00;;;;;;;13.93;66.11;99778.94;5050720;28;20064;-79
2023/11/06 08:05:31;;;;;;;5.80;0.95;;;;;;;13.73;65.88;99787.13;5049275;28;20064;-80
2023/11/06 08:07:59;;;;;;;5.72;1.00;;;;;;;14.05;65.27;99776.09;5049118;28;20037;-79
2023/11/06 08:10:29;;;;;;;7.07;1.30;;;;;;;14.08;65.42;99785.69;5049880;28;20101;-80
2023/11/06 08:12:59;;;;;;;3.30;1.10;;;;;;;14.18;65.37;99784.63;5049934;28;20044;-79
2023/11/06 08:15:27;;;;;;;3.92;1.20;;;;;;;14.28;65.14;99786.16;5050005;28;20112;-79
2023/11/06 08:17:52;;;;;;;4.82;1.50;;;;;;;13.83;65.75;99793.09;5051648;28;20124;-78
2023/11/06 08:20:18;;;;;;;5.75;1.42;;;;;;;14.50;64.96;99798.00;5049737;28;20124;-79
2023/11/06 08:22:55;;;;;;;5.53;1.20;;;;;;;14.63;64.16;99806.50;5050072;28;20474;-78
2023/11/06 08:25:24;;;;;;;7.35;1.45;;;;;;;14.23;64.71;99801.13;5049484;28;20040;-79
2023/11/06 08:27:49;;;;;;;8.73;1.58;;;;;;;14.04;64.72;99797.09;5049889;28;20037;-78
2023/11/06 08:30:15;;;;;;;7.35;1.70;;;;;;;13.95;66.41;99800.75;5050273;28;20394;-78
2023/11/06 08:32:40;;;;;;;9.35;1.58;;;;;;;13.90;66.30;99799.97;5048895;28;20486;-78
2023/11/06 08:35:07;;;;;;;9.48;1.77;;;;;;;14.23;65.35;99795.88;5047782;28;20029;-78
2023/11/06 08:37:36;;;;;;;10.50;2.05;;;;;;;14.02;66.46;99801.53;5049308;28;20033;-79
2023/11/06 08:40:05;;;;;;;10.20;2.20;;;;;;;14.20;65.60;99799.44;5053538;28;20520;-80
2023/11/06 08:42:37;;;;;;;9.13;2.10;;;;;;;14.18;66.03;99797.72;5052902;28;20064;-80
2023/11/06 08:45:04;;;;;;;6.60;2.25;;;;;;;14.28;65.06;99798.41;5056613;28;20112;-80
2023/11/06 08:47:44;;;;;;;7.13;2.03;;;;;;;14.73;64.46;99791.44;5052432;28;20072;-80
2023/11/06 08:50:09;;;;;;;9.57;2.38;;;;;;;14.17;65.31;99801.22;5054187;28;20037;-78
2023/11/06 08:52:35;;;;;;;9.40;2.03;;;;;;;14.21;64.67;99810.75;5052984;28;20044;-79
2023/11/06 08:55:00;;;;;;;9.15;2.15;;;;;;;14.54;63.86;99799.66;5053718;28;20421;-79
2023/11/06 08:57:30;;;;;;;11.02;2.35;;;;;;;14.20;64.58;99807.28;5053223;28;20104;-78
2023/11/06 09:00:01;;;;;;;4.80;1.60;;;;;;;14.44;63.80;99795.50;5053768;28;20055;-79
2023/11/06 09:02:30;;;;;;;9.90;1.67;;;;;;;14.39;63.64;99814.84;5052687;28;20087;-80
2023/11/06 09:04:58;;;;;;;7.30;1.73;;;;;;;13.91;64.28;99803.44;5052986;28;20393;-80
2023/11/06 09:07:30;;;;;;;8.65;1.55;;;;;;;14.37;62.56;99813.97;5052795;28;20520;-80
2023/11/06 09:09:55;;;;;;;8.05;1.50;;;;;;;14.46;62.53;99816.44;5051967;28;20051;-80
2023/11/06 09:12:21;;;;;;;9.05;1.42;;;;;;;14.69;61.94;99821.25;5053345;28;20037;-79
2023/11/06 09:14:53;;;;;;;5.85;1.45;;;;;;;14.57;62.40;99825.00;5054610;28;20564;-80
2023/11/06 09:17:19;;;;;;;7.38;1.20;;;;;;;14.79;62.09;99828.03;5054070;28;20036;-79
2023/11/06 09:19:46;;;;;;;8.20;1.30;;;;;;;14.40;62.93;99821.78;5055235;28;20037;-79
2023/11/06 09:22:12;;;;;;;5.75;1.00;;;;;;;15.00;61.25;99825.81;5054470;28;20083;-80
2023/11/06 09:24:47;;;;;;;6.07;1.17;;;;;;;14.91;62.07;99833.03;5052016;28;20094;-80
2023/11/06 09:27:19;;;;;;;;;;;;;;;15.08;60.94;99849.28;5052968;28;20435;-77
2023/11/06 09:29:45;;;;;;;4.07;1.30;;;;;;;15.03;61.17;99840.66;5055404;28;19968;-80
2023/11/06 09:32:16;;;;;;;4.90;1.17;;;;;;;14.66;61.72;99840.53;5052606;28;20060;-81
2023/11/06 09:34:45;;;;;;;5.57;1.20;;;;;;;14.60;61.80;99852.00;5053026;28;20163;-78
2023/11/06 09:37:10;;;;;;;7.43;1.40;;;;;;;14.65;61.71;99833.53;5056937;28;20035;-80
2023/11/06 09:39:38;;;;;;;5.55;1.40;;;;;;;14.68;61.44;99853.63;5057611;28;20094;-79
2023/11/06 09:42:22;;;;;;;4.07;1.10;;;;;;;14.58;62.74;99869.53;5058007;28;20033;-79
2023/11/06 09:44:48;;;;;;;4.85;1.10;;;;;;;14.54;62.14;99880.97;5062233;28;20047;-80
2023/11/06 09:47:15;;;;;;;5.38;1.30;;;;;;;14.99;60.88;99873.97;5062995;28;20053;-78
2023/11/06 09:50:18;;;;;;;4.13;1.10;;;;;;;14.74;61.07;99890.25;5059076;28;20028;-79
2023/11/06 09:52:56;;;;;;;7.70;1.23;;;;;;;14.81;62.60;99889.22;4955639;29;20039;-78
2023/11/06 09:55:28;;;;;;;5.70;1.20;;;;;;;14.13;63.74;99891.31;5027241;28;20033;-78
2023/11/06 09:57:54;;;;;;;6.20;1.30;;;;;;;14.41;62.77;99899.56;5049721;28;20106;-80
2023/11/06 10:00:20;;;;;;;7.80;1.42;;;;;;;14.37;62.51;99913.63;5055464;28;20532;-78
2023/11/06 10:02:53;;;;;;;12.00;1.58;;;;;;;14.15;63.96;99918.34;5057094;28;20033;-79
2023/11/06 10:05:23;;;;;;;7.13;1.33;;;;;;;14.44;64.25;99929.25;5017257;28;20040;-80
2023/11/06 10:07:55;;;;;;;8.85;1.35;;;;;;;14.75;62.60;99926.09;5046222;28;20041;-79
2023/11/06 10:10:23;;;;;;;11.18;1.52;;;;;;;14.97;62.20;99935.25;5052874;28;20048;-79
2023/11/06 10:13:13;;;;;;;7.03;1.33;;;;;;;14.85;62.84;99925.88;5055154;28;20037;-79
2023/11/06 10:15:39;;;;;;;4.30;1.38;;;;;;;15.03;62.99;99941.25;5051668;28;20051;-79
2023/11/06 10:18:21;;;;;;;9.15;1.50;;;;;;;15.08;62.57;99938.53;5053083;28;20040;-79
2023/11/06 10:20:54;;;;;;;10.40;1.83;;;;;;;14.59;63.42;99938.59;5035176;28;20048;-79
2023/11/06 10:23:34;;;;;;;9.67;1.70;;;;;;;14.33;65.25;99932.91;5055286;28;20064;-78
2023/11/06 10:26:15;;;;;;;7.30;1.30;;;;;;;14.35;64.91;99945.09;5035649;28;20041;-79
2023/11/06 10:28:44;;;;;;;9.15;1.50;;;;;;;14.46;63.56;99948.44;5054215;28;20068;-80
2023/11/06 10:31:15;;;;;;;8.13;1.30;;;;;;;14.48;63.59;99940.53;5053708;28;20698;-80
2023/11/06 10:33:40;;;;;;;6.72;1.35;;;;;;;14.63;62.93;99947.28;5053477;28;20403;-79
2023/11/06 10:36:15;;;;;;;8.02;1.15;;;;;;;14.64;62.67;99944.63;5054174;28;20041;-80
2023/11/06 10:38:41;;;;;;;4.47;1.10;;;;;;;14.91;62.32;99945.88;5055162;28;20429;-79
2023/11/06 10:41:25;;;;;;;6.07;1.30;;;;;;;14.39;62.82;99954.69;5053447;28;20086;-80
2023/11/06 10:44:00;;;;;;;6.22;1.20;;;;;;;14.77;62.25;99950.50;5055382;28;20055;-79
2023/11/06 10:46:35;;;;;;;5.10;1.20;;;;;;;14.30;62.38;99952.19;5034620;28;20036;-78
2023/11/06 10:49:10;;;;;;;5.78;1.10;;;;;;;14.48;62.94;99969.38;5054656;28;20051;-78
2023/11/06 10:51:37;;;;;;;7.30;1.58;;;;;;;14.42;63.26;99969.50;5053272;28;20033;-79
2023/11/06 10:54:05;;;;;;;5.22;1.20;;;;;;;14.33;63.43;99967.88;5035654;28;20041;-78
2023/11/06 10:56:35;;;;;;;4.53;1.10;;;;;;;14.93;61.57;99970.34;5052371;28;20044;-78
2023/11/06 10:59:02;;;;;;;4.00;1.20;;;;;;;14.61;62.08;99963.91;5053775;28;20065;-80
2023/11/06 11:01:30;;;;;;;7.47;1.27;;;;;;;14.61;62.72;99970.91;5053938;28;20033;-78
2023/11/06 11:04:01;;;;;;;6.50;1.17;;;;;;;14.23;63.10;99976.75;5057005;28;20041;-78
2023/11/06 11:06:28;;;;;;;8.30;1.13;;;;;;;14.56;62.71;99972.75;5033508;28;20040;-78
2023/11/06 11:08:54;;;;;;;7.20;1.27;;;;;;;14.22;62.80;99972.41;5053723;28;20040;-78
2023/11/06 11:11:19;;;;;;;5.15;1.20;;;;;;;14.68;62.64;99971.69;5053915;28;20037;-80
2023/11/06 11:13:46;;;;;;;5.10;1.02;;;;;;;14.70;61.87;99973.38;5053290;28;20116;-78
2023/11/06 11:16:45;;;;;;;5.90;1.30;;;;;;;14.50;61.53;99972.88;5035865;28;20032;-79
2023/11/06 11:19:39;;;;;;;3.45;1.02;;;;;;;14.78;61.51;99976.72;5055596;28;20037;-80
2023/11/06 11:22:12;;;;;;;3.60;0.82;;;;;;;14.89;60.52;99989.66;5056062;28;20029;-79
2023/11/06 11:24:50;;;;;;;4.93;1.00;;;;;;;14.48;61.86;99983.38;5053747;28;20048;-78
2023/11/06 11:27:30;;;;;;;6.72;1.05;;;;;;;14.83;60.46;99993.25;5056415;28;20044;-81
2023/11/06 11:29:56;;;;;;;4.53;1.20;;;;;;;14.50;61.61;99978.09;5060212;28;20109;-80
2023/11/06 11:32:27;;;;;;;4.50;1.00;;;;;;;15.00;61.04;99991.19;5055079;28;20065;-80
2023/11/06 11:35:10;;;;;;;4.88;1.33;;;;;;;14.50;61.80;99994.72;5052841;28;20055;-79